sensor_id;sensor_type;location;lat;lon;timestamp;pressure;altitude;pressure_sealevel;temperature;humidity
29315;BME280;16320;53.954;9.506;2023-02-28T00:02:10;102907.00;;;4.22;100.00
29315;BME280;16320;53.954;9.506;2023-02-28T00:05:18;102894.91;;;4.24;100.00
29315;BME280;16320;53.954;9.506;2023-02-28T00:08:22;102887.88;;;4.15;100.00
29315;BME280;16320;53.954;9.506;2023-02-28T00:11:27;102891.22;;;4.02;100.00
29315;BME280;16320;53.954;9.506;2023-02-28T00:14:32;102883.38;;;3.99;100.00
29315;BME280;16320;53.954;9.506;2023-02-28T00:17:38;102892.09;;;4.04;100.00
29315;BME280;16320;53.954;9.506;2023-02-28T00:20:42;102886.91;;;4.06;100.00
29315;BME280;16320;53.954;9.506;2023-02-28T00:23:46;102890.25;;;3.94;100.00
29315;BME280;16320;53.954;9.506;2023-02-28T00:26:51;102900.66;;;3.94;100.00
29315;BME280;16320;53.954;9.506;2023-02-28T00:29:55;102892.88;;;3.95;100.00
29315;BME280;16320;53.954;9.506;2023-02-28T00:33:00;102897.19;;;3.93;100.00
29315;BME280;16320;53.954;9.506;2023-02-28T00:36:09;102899.91;;;4.04;100.00
29315;BME280;16320;53.954;9.506;2023-02-28T00:39:14;102901.47;;;3.90;100.00
29315;BME280;16320;53.954;9.506;2023-02-28T00:42:18;102902.31;;;3.85;100.00
29315;BME280;16320;53.954;9.506;2023-02-28T00:45:22;102917.03;;;3.83;100.00
29315;BME280;16320;53.954;9.506;2023-02-28T00:48:26;102912.75;;;3.89;100.00
29315;BME280;16320;53.954;9.506;2023-02-28T00:51:31;102917.03;;;3.87;100.00
29315;BME280;16320;53.954;9.506;2023-02-28T00:54:35;102915.31;;;3.87;100.00
29315;BME280;16320;53.954;9.506;2023-02-28T00:57:39;102926.63;;;3.91;100.00
29315;BME280;16320;53.954;9.506;2023-02-28T01:00:44;102929.41;;;4.05;100.00
29315;BME280;16320;53.954;9.506;2023-02-28T01:03:52;102937.19;;;4.06;100.00
29315;BME280;16320;53.954;9.506;2023-02-28T01:06:57;102937.25;;;4.12;100.00
29315;BME280;16320;53.954;9.506;2023-02-28T01:10:01;102931.97;;;4.06;100.00
29315;BME280;16320;53.954;9.506;2023-02-28T01:13:06;102924.19;;;4.05;100.00
29315;BME280;16320;53.954;9.506;2023-02-28T01:16:11;102928.66;;;4.16;100.00
29315;BME280;16320;53.954;9.506;2023-02-28T01:19:16;102931.25;;;4.18;100.00
29315;BME280;16320;53.954;9.506;2023-02-28T01:22:20;102930.38;;;4.14;100.00
29315;BME280;16320;53.954;9.506;2023-02-28T01:25:24;102926.97;;;4.21;100.00
29315;BME280;16320;53.954;9.506;2023-02-28T01:28:29;102919.84;;;4.05;100.00
29315;BME280;16320;53.954;9.506;2023-02-28T01:31:35;102925.03;;;4.02;100.00
29315;BME280;16320;53.954;9.506;2023-02-28T01:34:40;102921.44;;;3.91;100.00
29315;BME280;16320;53.954;9.506;2023-02-28T01:37:44;102934.28;;;3.80;100.00
29315;BME280;16320;53.954;9.506;2023-02-28T01:40:51;102934.25;;;3.74;100.00
29315;BME280;16320;53.954;9.506;2023-02-28T01:47:50;102938.66;;;3.82;100.00
29315;BME280;16320;53.954;9.506;2023-02-28T01:50:59;102949.09;;;3.85;100.00
29315;BME280;16320;53.954;9.506;2023-02-28T01:54:10;102960.31;;;3.83;100.00
29315;BME280;16320;53.954;9.506;2023-02-28T01:57:21;102959.47;;;3.82;100.00
29315;BME280;16320;53.954;9.506;2023-02-28T02:00:29;102965.59;;;3.89;100.00
29315;BME280;16320;53.954;9.506;2023-02-28T02:03:35;102960.44;;;3.91;100.00
29315;BME280;16320;53.954;9.506;2023-02-28T02:06:45;102966.44;;;3.87;100.00
29315;BME280;16320;53.954;9.506;2023-02-28T02:20:40;102957.72;;;3.81;100.00
29315;BME280;16320;53.954;9.506;2023-02-28T02:27:24;102953.38;;;3.80;100.00
29315;BME280;16320;53.954;9.506;2023-02-28T02:38:10;102912.50;;;3.70;100.00
29315;BME280;16320;53.954;9.506;2023-02-28T02:41:46;102902.06;;;3.67;100.00
29315;BME280;16320;53.954;9.506;2023-02-28T02:45:07;102899.50;;;3.69;100.00
29315;BME280;16320;53.954;9.506;2023-02-28T02:48:17;102897.75;;;3.66;100.00
29315;BME280;16320;53.954;9.506;2023-02-28T02:51:24;102883.00;;;3.65;100.00
29315;BME280;16320;53.954;9.506;2023-02-28T02:54:35;102886.44;;;3.61;100.00
29315;BME280;16320;53.954;9.506;2023-02-28T02:57:52;102889.06;;;3.62;100.00
29315;BME280;16320;53.954;9.506;2023-02-28T03:01:01;102881.22;;;3.61;100.00
29315;BME280;16320;53.954;9.506;2023-02-28T03:04:17;102882.13;;;3.63;100.00
29315;BME280;16320;53.954;9.506;2023-02-28T03:07:22;102884.75;;;3.66;100.00
29315;BME280;16320;53.954;9.506;2023-02-28T03:10:34;102889.09;;;3.69;100.00
29315;BME280;16320;53.954;9.506;2023-02-28T03:25:16;102885.47;;;3.56;100.00
29315;BME280;16320;53.954;9.506;2023-02-28T03:32:37;102896.78;;;3.58;100.00
29315;BME280;16320;53.954;9.506;2023-02-28T03:35:55;102891.53;;;3.55;100.00
29315;BME280;16320;53.954;9.506;2023-02-28T03:39:14;102895.06;;;3.60;100.00
29315;BME280;16320;53.954;9.506;2023-02-28T03:42:28;102886.38;;;3.58;100.00
29315;BME280;16320;53.954;9.506;2023-02-28T03:45:37;102896.66;;;3.48;100.00
29315;BME280;16320;53.954;9.506;2023-02-28T03:48:56;102882.81;;;3.50;100.00
29315;BME280;16320;53.954;9.506;2023-02-28T03:52:05;102869.06;;;3.60;100.00
29315;BME280;16320;53.954;9.506;2023-02-28T03:55:13;102864.63;;;3.50;100.00
29315;BME280;16320;53.954;9.506;2023-02-28T04:01:45;102863.47;;;3.26;100.00
29315;BME280;16320;53.954;9.506;2023-02-28T04:04:51;102872.00;;;3.17;100.00
29315;BME280;16320;53.954;9.506;2023-02-28T04:08:07;102873.66;;;3.10;100.00
29315;BME280;16320;53.954;9.506;2023-02-28T04:14:38;102870.00;;;2.96;100.00
29315;BME280;16320;53.954;9.506;2023-02-28T04:17:43;102866.66;;;3.06;100.00
29315;BME280;16320;53.954;9.506;2023-02-28T04:20:47;102875.28;;;3.02;100.00
29315;BME280;16320;53.954;9.506;2023-02-28T04:23:51;102872.63;;;2.98;100.00
29315;BME280;16320;53.954;9.506;2023-02-28T04:26:57;102868.19;;;2.92;100.00
29315;BME280;16320;53.954;9.506;2023-02-28T04:30:02;102869.91;;;2.90;100.00
29315;BME280;16320;53.954;9.506;2023-02-28T04:33:07;102875.19;;;2.96;100.00
29315;BME280;16320;53.954;9.506;2023-02-28T04:36:11;102875.13;;;2.93;100.00
29315;BME280;16320;53.954;9.506;2023-02-28T04:39:17;102873.31;;;2.89;100.00
29315;BME280;16320;53.954;9.506;2023-02-28T04:42:22;102881.06;;;2.86;100.00
29315;BME280;16320;53.954;9.506;2023-02-28T04:45:27;102882.88;;;2.90;100.00
29315;BME280;16320;53.954;9.506;2023-02-28T04:48:37;102895.03;;;2.92;100.00
29315;BME280;16320;53.954;9.506;2023-02-28T04:51:42;102909.81;;;2.98;100.00
29315;BME280;16320;53.954;9.506;2023-02-28T04:54:46;102909.84;;;3.00;100.00
29315;BME280;16320;53.954;9.506;2023-02-28T04:57:51;102913.34;;;3.03;100.00
29315;BME280;16320;53.954;9.506;2023-02-28T05:01:06;102909.97;;;3.07;100.00
29315;BME280;16320;53.954;9.506;2023-02-28T05:04:17;102919.41;;;3.04;100.00
29315;BME280;16320;53.954;9.506;2023-02-28T05:07:22;102922.81;;;2.98;100.00
29315;BME280;16320;53.954;9.506;2023-02-28T05:10:26;102914.25;;;3.05;100.00
29315;BME280;16320;53.954;9.506;2023-02-28T05:13:30;102901.94;;;2.92;100.00
29315;BME280;16320;53.954;9.506;2023-02-28T05:16:35;102904.47;;;2.89;100.00
29315;BME280;16320;53.954;9.506;2023-02-28T05:19:39;102894.16;;;2.92;100.00
29315;BME280;16320;53.954;9.506;2023-02-28T05:22:44;102895.84;;;2.90;100.00
29315;BME280;16320;53.954;9.506;2023-02-28T05:25:48;102891.53;;;2.90;100.00
29315;BME280;16320;53.954;9.506;2023-02-28T05:28:53;102894.88;;;2.82;100.00
29315;BME280;16320;53.954;9.506;2023-02-28T05:31:58;102900.84;;;2.78;100.00
29315;BME280;16320;53.954;9.506;2023-02-28T05:35:04;102908.59;;;2.73;100.00
29315;BME280;16320;53.954;9.506;2023-02-28T05:38:09;102911.91;;;2.66;100.00
29315;BME280;16320;53.954;9.506;2023-02-28T05:41:13;102908.38;;;2.61;100.00
29315;BME280;16320;53.954;9.506;2023-02-28T05:44:18;102905.72;;;2.58;100.00
29315;BME280;16320;53.954;9.506;2023-02-28T05:47:22;102904.84;;;2.55;100.00
29315;BME280;16320;53.954;9.506;2023-02-28T05:50:26;102905.63;;;2.53;100.00
29315;BME280;16320;53.954;9.506;2023-02-28T05:53:31;102909.09;;;2.52;100.00
29315;BME280;16320;53.954;9.506;2023-02-28T05:56:35;102909.03;;;2.49;100.00
29315;BME280;16320;53.954;9.506;2023-02-28T05:59:41;102911.66;;;2.50;100.00
29315;BME280;16320;53.954;9.506;2023-02-28T06:02:45;102902.81;;;2.37;100.00
29315;BME280;16320;53.954;9.506;2023-02-28T06:05:50;102901.78;;;2.29;100.00
29315;BME280;16320;53.954;9.506;2023-02-28T06:08:55;102898.22;;;2.24;100.00
29315;BME280;16320;53.954;9.506;2023-02-28T06:12:01;102913.78;;;2.23;100.00
29315;BME280;16320;53.954;9.506;2023-02-28T06:15:15;102918.75;;;2.12;100.00
29315;BME280;16320;53.954;9.506;2023-02-28T06:18:19;102909.97;;;2.04;100.00
29315;BME280;16320;53.954;9.506;2023-02-28T06:21:24;102911.59;;;1.98;100.00
29315;BME280;16320;53.954;9.506;2023-02-28T06:24:28;102930.69;;;2.02;100.00
29315;BME280;16320;53.954;9.506;2023-02-28T06:27:34;102927.16;;;1.98;100.00
29315;BME280;16320;53.954;9.506;2023-02-28T06:30:39;102940.94;;;1.97;100.00
29315;BME280;16320;53.954;9.506;2023-02-28T06:33:44;102953.06;;;1.98;100.00
29315;BME280;16320;53.954;9.506;2023-02-28T06:36:51;102965.22;;;2.01;100.00
29315;BME280;16320;53.954;9.506;2023-02-28T06:39:56;102963.16;;;1.85;100.00
29315;BME280;16320;53.954;9.506;2023-02-28T06:43:00;102959.56;;;1.78;100.00
29315;BME280;16320;53.954;9.506;2023-02-28T06:46:07;102960.25;;;1.69;100.00
29315;BME280;16320;53.954;9.506;2023-02-28T06:49:12;102968.91;;;1.70;100.00
29315;BME280;16320;53.954;9.506;2023-02-28T06:52:16;102955.97;;;1.71;100.00
29315;BME280;16320;53.954;9.506;2023-02-28T06:55:21;102952.38;;;1.64;100.00
29315;BME280;16320;53.954;9.506;2023-02-28T06:58:25;102949.38;;;1.46;100.00
29315;BME280;16320;53.954;9.506;2023-02-28T07:01:30;102952.63;;;1.36;100.00
29315;BME280;16320;53.954;9.506;2023-02-28T07:04:36;102971.41;;;1.27;100.00
29315;BME280;16320;53.954;9.506;2023-02-28T07:07:43;102972.22;;;1.24;100.00
29315;BME280;16320;53.954;9.506;2023-02-28T07:10:55;102969.59;;;1.23;100.00
29315;BME280;16320;53.954;9.506;2023-02-28T07:13:59;102981.66;;;1.22;100.00
29315;BME280;16320;53.954;9.506;2023-02-28T07:17:07;102982.56;;;1.24;100.00
29315;BME280;16320;53.954;9.506;2023-02-28T07:20:12;102983.34;;;1.22;100.00
29315;BME280;16320;53.954;9.506;2023-02-28T07:23:17;102984.19;;;1.19;100.00
29315;BME280;16320;53.954;9.506;2023-02-28T07:26:21;102986.91;;;1.25;100.00
29315;BME280;16320;53.954;9.506;2023-02-28T07:29:26;102989.66;;;1.32;100.00
29315;BME280;16320;53.954;9.506;2023-02-28T07:32:31;102995.03;;;1.41;100.00
29315;BME280;16320;53.954;9.506;2023-02-28T07:35:35;102998.94;;;1.61;100.00
29315;BME280;16320;53.954;9.506;2023-02-28T07:38:44;103016.72;;;1.84;100.00
29315;BME280;16320;53.954;9.506;2023-02-28T07:41:51;103022.13;;;1.96;100.00
29315;BME280;16320;53.954;9.506;2023-02-28T07:44:56;103021.50;;;2.07;100.00
29315;BME280;16320;53.954;9.506;2023-02-28T07:48:00;103023.53;;;2.22;100.00
29315;BME280;16320;53.954;9.506;2023-02-28T07:51:05;103010.78;;;2.32;100.00
29315;BME280;16320;53.954;9.506;2023-02-28T07:54:09;103010.03;;;2.40;100.00
29315;BME280;16320;53.954;9.506;2023-02-28T07:57:13;103017.19;;;2.51;100.00
29315;BME280;16320;53.954;9.506;2023-02-28T08:00:18;103012.06;;;2.56;100.00
29315;BME280;16320;53.954;9.506;2023-02-28T08:03:23;103008.75;;;2.65;100.00
29315;BME280;16320;53.954;9.506;2023-02-28T08:06:28;103010.59;;;2.70;100.00
29315;BME280;16320;53.954;9.506;2023-02-28T08:09:33;103007.22;;;2.76;100.00
29315;BME280;16320;53.954;9.506;2023-02-28T08:12:38;102996.09;;;2.82;100.00
29315;BME280;16320;53.954;9.506;2023-02-28T08:15:42;102995.34;;;2.89;100.00
29315;BME280;16320;53.954;9.506;2023-02-28T08:18:48;102998.03;;;2.93;100.00
29315;BME280;16320;53.954;9.506;2023-02-28T08:21:53;102996.38;;;2.99;100.00
29315;BME280;16320;53.954;9.506;2023-02-28T08:24:57;102991.28;;;3.05;100.00
29315;BME280;16320;53.954;9.506;2023-02-28T08:28:01;102986.22;;;3.13;100.00
29315;BME280;16320;53.954;9.506;2023-02-28T08:31:11;102978.56;;;3.22;100.00
29315;BME280;16320;53.954;9.506;2023-02-28T08:34:16;102974.25;;;3.24;100.00
29315;BME280;16320;53.954;9.506;2023-02-28T08:37:21;102974.31;;;3.27;100.00
29315;BME280;16320;53.954;9.506;2023-02-28T08:40:25;102970.91;;;3.31;100.00
29315;BME280;16320;53.954;9.506;2023-02-28T08:43:30;102968.41;;;3.39;100.00
29315;BME280;16320;53.954;9.506;2023-02-28T08:46:34;102971.09;;;3.43;100.00
29315;BME280;16320;53.954;9.506;2023-02-28T08:49:38;102959.94;;;3.52;100.00
29315;BME280;16320;53.954;9.506;2023-02-28T08:52:43;102955.72;;;3.60;100.00
29315;BME280;16320;53.954;9.506;2023-02-28T08:55:55;102959.25;;;3.64;100.00
29315;BME280;16320;53.954;9.506;2023-02-28T08:59:00;102953.25;;;3.70;100.00
29315;BME280;16320;53.954;9.506;2023-02-28T09:02:11;102964.66;;;3.82;100.00
29315;BME280;16320;53.954;9.506;2023-02-28T09:05:16;102956.03;;;3.83;100.00
29315;BME280;16320;53.954;9.506;2023-02-28T09:08:22;102949.09;;;3.85;100.00
29315;BME280;16320;53.954;9.506;2023-02-28T09:11:28;102947.47;;;3.94;100.00
29315;BME280;16320;53.954;9.506;2023-02-28T09:14:32;102955.34;;;4.00;100.00
29315;BME280;16320;53.954;9.506;2023-02-28T09:17:37;102959.78;;;4.10;100.00
29315;BME280;16320;53.954;9.506;2023-02-28T09:20:42;102952.94;;;4.18;100.00
29315;BME280;16320;53.954;9.506;2023-02-28T09:23:51;102952.16;;;4.29;100.00
29315;BME280;16320;53.954;9.506;2023-02-28T09:26:55;102956.59;;;4.36;100.00
29315;BME280;16320;53.954;9.506;2023-02-28T09:30:09;102952.28;;;4.39;100.00
29315;BME280;16320;53.954;9.506;2023-02-28T09:33:14;102939.28;;;4.41;100.00
29315;BME280;16320;53.954;9.506;2023-02-28T09:36:19;102936.81;;;4.52;100.00
29315;BME280;16320;53.954;9.506;2023-02-28T09:39:25;102937.69;;;4.55;100.00
29315;BME280;16320;53.954;9.506;2023-02-28T09:42:34;102930.84;;;4.65;100.00
29315;BME280;16320;53.954;9.506;2023-02-28T09:45:42;102924.88;;;4.79;100.00
29315;BME280;16320;53.954;9.506;2023-02-28T09:48:48;102938.81;;;4.88;100.00
29315;BME280;16320;53.954;9.506;2023-02-28T09:52:12;102933.69;;;4.96;100.00
29315;BME280;16320;53.954;9.506;2023-02-28T09:55:52;102939.78;;;5.01;100.00
29315;BME280;16320;53.954;9.506;2023-02-28T10:03:06;102930.44;;;5.37;100.00
29315;BME280;16320;53.954;9.506;2023-02-28T10:06:20;102922.66;;;5.39;100.00
29315;BME280;16320;53.954;9.506;2023-02-28T10:09:30;102933.94;;;5.36;100.00
29315;BME280;16320;53.954;9.506;2023-02-28T10:12:41;102931.31;;;5.38;100.00
29315;BME280;16320;53.954;9.506;2023-02-28T10:15:55;102920.94;;;5.45;100.00
29315;BME280;16320;53.954;9.506;2023-02-28T10:22:23;102932.22;;;5.40;100.00
29315;BME280;16320;53.954;9.506;2023-02-28T10:25:30;102933.16;;;5.51;100.00
29315;BME280;16320;53.954;9.506;2023-02-28T10:28:34;102941.00;;;5.56;100.00
29315;BME280;16320;53.954;9.506;2023-02-28T10:31:39;102942.78;;;5.69;100.00
29315;BME280;16320;53.954;9.506;2023-02-28T10:34:44;102931.56;;;5.90;100.00
29315;BME280;16320;53.954;9.506;2023-02-28T10:37:57;102936.88;;;6.15;100.00
29315;BME280;16320;53.954;9.506;2023-02-28T10:41:10;102934.28;;;6.24;100.00
29315;BME280;16320;53.954;9.506;2023-02-28T10:44:20;102932.56;;;6.29;100.00
29315;BME280;16320;53.954;9.506;2023-02-28T10:47:25;102930.84;;;6.57;100.00
29315;BME280;16320;53.954;9.506;2023-02-28T10:50:44;102929.97;;;6.85;100.00
29315;BME280;16320;53.954;9.506;2023-02-28T10:53:54;102928.22;;;7.08;100.00
29315;BME280;16320;53.954;9.506;2023-02-28T10:57:23;102931.63;;;7.23;100.00
29315;BME280;16320;53.954;9.506;2023-02-28T11:00:35;102925.59;;;7.01;100.00
29315;BME280;16320;53.954;9.506;2023-02-28T11:03:40;102924.75;;;6.85;100.00
29315;BME280;16320;53.954;9.506;2023-02-28T11:06:44;102924.75;;;6.88;100.00
29315;BME280;16320;53.954;9.506;2023-02-28T11:09:51;102914.28;;;6.85;100.00
29315;BME280;16320;53.954;9.506;2023-02-28T11:12:57;102922.13;;;6.88;100.00
29315;BME280;16320;53.954;9.506;2023-02-28T11:16:10;102926.47;;;6.67;100.00
29315;BME280;16320;53.954;9.506;2023-02-28T11:19:28;102916.94;;;6.63;100.00
29315;BME280;16320;53.954;9.506;2023-02-28T11:22:39;102906.47;;;6.52;100.00
29315;BME280;16320;53.954;9.506;2023-02-28T11:25:50;102910.81;;;6.39;100.00
29315;BME280;16320;53.954;9.506;2023-02-28T11:29:28;102902.97;;;6.59;100.00
29315;BME280;16320;53.954;9.506;2023-02-28T11:32:32;102895.13;;;6.61;100.00
29315;BME280;16320;53.954;9.506;2023-02-28T11:35:39;102898.63;;;6.78;100.00
29315;BME280;16320;53.954;9.506;2023-02-28T11:38:44;102900.38;;;6.86;100.00
29315;BME280;16320;53.954;9.506;2023-02-28T11:42:22;102901.19;;;7.09;100.00
29315;BME280;16320;53.954;9.506;2023-02-28T11:49:35;102895.88;;;7.29;100.00
29315;BME280;16320;53.954;9.506;2023-02-28T11:53:00;102899.47;;;7.07;100.00
29315;BME280;16320;53.954;9.506;2023-02-28T11:56:15;102891.63;;;6.97;100.00
29315;BME280;16320;53.954;9.506;2023-02-28T12:00:00;102883.75;;;7.13;100.00
29315;BME280;16320;53.954;9.506;2023-02-28T12:07:01;102893.34;;;7.06;100.00
29315;BME280;16320;53.954;9.506;2023-02-28T12:21:23;102878.47;;;7.30;100.00
29315;BME280;16320;53.954;9.506;2023-02-28T12:28:25;102863.56;;;7.50;100.00
29315;BME280;16320;53.954;9.506;2023-02-28T12:31:36;102850.47;;;7.52;100.00
29315;BME280;16320;53.954;9.506;2023-02-28T12:34:51;102846.16;;;7.46;100.00
29315;BME280;16320;53.954;9.506;2023-02-28T12:44:48;102835.53;;;7.77;100.00
29315;BME280;16320;53.954;9.506;2023-02-28T12:48:02;102839.19;;;7.45;100.00
29315;BME280;16320;53.954;9.506;2023-02-28T12:51:08;102840.19;;;7.18;100.00
29315;BME280;16320;53.954;9.506;2023-02-28T12:58:02;102835.00;;;6.92;100.00
29315;BME280;16320;53.954;9.506;2023-02-28T13:05:34;102830.69;;;6.88;100.00
29315;BME280;16320;53.954;9.506;2023-02-28T13:12:15;102807.81;;;7.39;100.00
29315;BME280;16320;53.954;9.506;2023-02-28T13:15:27;102802.53;;;7.51;100.00
29315;BME280;16320;53.954;9.506;2023-02-28T13:18:40;102806.06;;;7.47;100.00
29315;BME280;16320;53.954;9.506;2023-02-28T13:21:46;102803.47;;;7.46;100.00
29315;BME280;16320;53.954;9.506;2023-02-28T13:24:57;102798.09;;;7.66;100.00
29315;BME280;16320;53.954;9.506;2023-02-28T13:28:10;102800.28;;;8.24;100.00
29315;BME280;16320;53.954;9.506;2023-02-28T13:31:15;102794.53;;;8.80;100.00
29315;BME280;16320;53.954;9.506;2023-02-28T13:34:21;102785.22;;;9.27;100.00
29315;BME280;16320;53.954;9.506;2023-02-28T13:40:32;102774.97;;;10.27;100.00
29315;BME280;16320;53.954;9.506;2023-02-28T13:47:21;102768.50;;;10.92;100.00
29315;BME280;16320;53.954;9.506;2023-02-28T13:53:54;102769.50;;;10.39;100.00
29315;BME280;16320;53.954;9.506;2023-02-28T14:07:53;102775.66;;;9.84;100.00
29315;BME280;16320;53.954;9.506;2023-02-28T14:11:15;102776.72;;;9.72;100.00
29315;BME280;16320;53.954;9.506;2023-02-28T14:17:41;102772.44;;;9.03;100.00
29315;BME280;16320;53.954;9.506;2023-02-28T14:20:48;102766.66;;;8.73;100.00
29315;BME280;16320;53.954;9.506;2023-02-28T14:42:34;102782.22;;;7.91;100.00
29315;BME280;16320;53.954;9.506;2023-02-28T14:45:39;102775.31;;;7.83;100.00
29315;BME280;16320;53.954;9.506;2023-02-28T14:48:47;102776.25;;;7.70;100.00
29315;BME280;16320;53.954;9.506;2023-02-28T14:52:29;102777.16;;;7.69;100.00
29315;BME280;16320;53.954;9.506;2023-02-28T14:55:36;102769.34;;;7.63;100.00
29315;BME280;16320;53.954;9.506;2023-02-28T14:58:52;102763.28;;;7.59;100.00
29315;BME280;16320;53.954;9.506;2023-02-28T15:02:23;102765.09;;;7.46;100.00
29315;BME280;16320;53.954;9.506;2023-02-28T15:05:34;102767.72;;;7.43;100.00
29315;BME280;16320;53.954;9.506;2023-02-28T15:08:38;102769.41;;;7.50;100.00
29315;BME280;16320;53.954;9.506;2023-02-28T15:11:48;102765.97;;;7.45;100.00
29315;BME280;16320;53.954;9.506;2023-02-28T15:14:54;102761.63;;;7.43;100.00
29315;BME280;16320;53.954;9.506;2023-02-28T15:17:59;102760.75;;;7.42;100.00
29315;BME280;16320;53.954;9.506;2023-02-28T15:21:12;102763.38;;;7.41;100.00
29315;BME280;16320;53.954;9.506;2023-02-28T15:24:44;102764.28;;;7.35;100.00
29315;BME280;16320;53.954;9.506;2023-02-28T15:27:53;102760.84;;;7.31;100.00
29315;BME280;16320;53.954;9.506;2023-02-28T15:31:02;102753.72;;;7.50;100.00
29315;BME280;16320;53.954;9.506;2023-02-28T15:34:26;102743.13;;;7.75;100.00
29315;BME280;16320;53.954;9.506;2023-02-28T15:38:22;102749.69;;;8.22;100.00
29315;BME280;16320;53.954;9.506;2023-02-28T15:41:36;102746.06;;;8.36;100.00
29315;BME280;16320;53.954;9.506;2023-02-28T15:44:42;102743.44;;;8.37;100.00
29315;BME280;16320;53.954;9.506;2023-02-28T15:47:50;102734.09;;;8.10;100.00
29315;BME280;16320;53.954;9.506;2023-02-28T15:51:07;102743.69;;;8.10;100.00
29315;BME280;16320;53.954;9.506;2023-02-28T15:54:23;102746.94;;;8.33;100.00
29315;BME280;16320;53.954;9.506;2023-02-28T15:57:29;102733.84;;;8.36;100.00
29315;BME280;16320;53.954;9.506;2023-02-28T16:00:34;102741.06;;;8.11;100.00
29315;BME280;16320;53.954;9.506;2023-02-28T16:03:48;102746.53;;;7.83;100.00
29315;BME280;16320;53.954;9.506;2023-02-28T16:10:12;102747.78;;;7.27;100.00
29315;BME280;16320;53.954;9.506;2023-02-28T16:13:20;102764.44;;;7.07;100.00
29315;BME280;16320;53.954;9.506;2023-02-28T16:16:26;102755.78;;;6.88;100.00
29315;BME280;16320;53.954;9.506;2023-02-28T16:19:32;102762.78;;;6.78;100.00
29315;BME280;16320;53.954;9.506;2023-02-28T16:22:38;102780.25;;;6.61;100.00
29315;BME280;16320;53.954;9.506;2023-02-28T16:25:45;102774.16;;;6.48;100.00
29315;BME280;16320;53.954;9.506;2023-02-28T16:28:52;102782.03;;;6.45;100.00
29315;BME280;16320;53.954;9.506;2023-02-28T16:31:57;102787.25;;;6.37;100.00
29315;BME280;16320;53.954;9.506;2023-02-28T16:35:02;102781.19;;;6.32;100.00
29315;BME280;16320;53.954;9.506;2023-02-28T16:38:06;102785.53;;;6.18;100.00
29315;BME280;16320;53.954;9.506;2023-02-28T16:41:21;102785.50;;;6.02;100.00
29315;BME280;16320;53.954;9.506;2023-02-28T16:44:33;102789.88;;;6.00;100.00
29315;BME280;16320;53.954;9.506;2023-02-28T16:47:38;102792.47;;;5.97;100.00
29315;BME280;16320;53.954;9.506;2023-02-28T16:50:43;102795.91;;;5.78;100.00
29315;BME280;16320;53.954;9.506;2023-02-28T16:53:48;102799.38;;;5.74;100.00
29315;BME280;16320;53.954;9.506;2023-02-28T16:56:53;102799.38;;;5.74;100.00
29315;BME280;16320;53.954;9.506;2023-02-28T16:59:57;102808.03;;;5.60;100.00
29315;BME280;16320;53.954;9.506;2023-02-28T17:03:02;102808.84;;;5.45;100.00
29315;BME280;16320;53.954;9.506;2023-02-28T17:06:24;102819.25;;;5.30;100.00
29315;BME280;16320;53.954;9.506;2023-02-28T17:09:28;102827.88;;;5.15;100.00
29315;BME280;16320;53.954;9.506;2023-02-28T17:12:47;102833.03;;;5.09;100.00
29315;BME280;16320;53.954;9.506;2023-02-28T17:15:51;102840.78;;;4.97;100.00
29315;BME280;16320;53.954;9.506;2023-02-28T17:19:03;102843.31;;;4.81;100.00
29315;BME280;16320;53.954;9.506;2023-02-28T17:22:08;102848.50;;;4.78;100.00
29315;BME280;16320;53.954;9.506;2023-02-28T17:25:13;102857.97;;;4.67;100.00
29315;BME280;16320;53.954;9.506;2023-02-28T17:28:17;102851.84;;;4.60;100.00
29315;BME280;16320;53.954;9.506;2023-02-28T17:31:23;102854.28;;;4.43;100.00
29315;BME280;16320;53.954;9.506;2023-02-28T17:34:28;102860.28;;;4.31;100.00
29315;BME280;16320;53.954;9.506;2023-02-28T17:37:32;102860.16;;;4.19;100.00
29315;BME280;16320;53.954;9.506;2023-02-28T17:40:37;102875.66;;;4.05;100.00
29315;BME280;16320;53.954;9.506;2023-02-28T17:43:41;102872.25;;;4.14;100.00
29315;BME280;16320;53.954;9.506;2023-02-28T17:46:47;102878.38;;;4.20;100.00
29315;BME280;16320;53.954;9.506;2023-02-28T17:49:52;102879.97;;;4.06;100.00
29315;BME280;16320;53.954;9.506;2023-02-28T17:52:56;102887.59;;;3.88;100.00
29315;BME280;16320;53.954;9.506;2023-02-28T17:56:00;102894.38;;;3.75;100.00
29315;BME280;16320;53.954;9.506;2023-02-28T17:59:05;102907.47;;;3.82;100.00
29315;BME280;16320;53.954;9.506;2023-02-28T18:02:12;102904.72;;;3.70;100.00
29315;BME280;16320;53.954;9.506;2023-02-28T18:05:17;102908.91;;;3.59;100.00
29315;BME280;16320;53.954;9.506;2023-02-28T18:08:21;102911.53;;;3.60;100.00
29315;BME280;16320;53.954;9.506;2023-02-28T18:11:26;102924.59;;;3.66;100.00
29315;BME280;16320;53.954;9.506;2023-02-28T18:14:46;102922.84;;;3.65;100.00
29315;BME280;16320;53.954;9.506;2023-02-28T18:17:51;102919.53;;;3.77;100.00
29315;BME280;16320;53.954;9.506;2023-02-28T18:20:56;102912.75;;;3.89;100.00
29315;BME280;16320;53.954;9.506;2023-02-28T18:24:01;102902.31;;;3.85;100.00
29315;BME280;16320;53.954;9.506;2023-02-28T18:27:05;102901.50;;;3.91;100.00
29315;BME280;16320;53.954;9.506;2023-02-28T18:30:11;102892.78;;;3.88;100.00
29315;BME280;16320;53.954;9.506;2023-02-28T18:33:15;102891.81;;;3.78;100.00
29315;BME280;16320;53.954;9.506;2023-02-28T18:36:20;102894.22;;;3.59;100.00
29315;BME280;16320;53.954;9.506;2023-02-28T18:39:25;102896.69;;;3.52;100.00
29315;BME280;16320;53.954;9.506;2023-02-28T18:42:30;102894.03;;;3.47;100.00
29315;BME280;16320;53.954;9.506;2023-02-28T18:45:36;102904.31;;;3.39;100.00
29315;BME280;16320;53.954;9.506;2023-02-28T18:48:42;102901.63;;;3.30;100.00